Lesmahagow, United Kingdom
Current Conditions -  °F | °C
As of 8:20 PM on Friday 19 Dec 2014 (Local Time) from EGPF Reporting Station
Light Rain Light Rain  
Wind Chill: 35°   Ceiling: 4800
Heat Index: 43°   Visibility: 6mi
Dew Point: 37°   Wind: 17mph
Humidity: 81%   Direction: 260°W
Pressure: 29.8"   Gusts: 32mph
Location:  55.64°N, 3.89°W
Report Text: EGPF 192020Z AUTO 26015G28KT 9000 -RA FEW028/// SCT034/// BKN048/// //////TCU 06/03 Q1009
Loading
Personal Weather Stations






























Interactive Weather Map New forecast layout! Learn more

10-Day Weather Forecast

Advertisements
Track Severe Weather on mobile